Time;durP1;ratioP1;P1;durP2;ratioP2;P2;SDS_P1;SDS_P2;PMS_P1;PMS_P2;Temp;Humidity;BMP_temperature;BMP_pressure;BME280_temperature;BME280_humidity;BME280_pressure;Samples;Min_cycle;Max_cycle;Signal;HPM_P1;HPM_P2
2022/07/14 00:00:04;;;;;;;;;;;15.20;99.90;;;;;;5126391;27;20291;-83
2022/07/14 00:02:29;;;;;;;;;;;15.20;99.90;;;;;;5101889;27;19935;-83
2022/07/14 00:04:55;;;;;;;;;;;15.20;99.90;;;;;;5119770;27;19923;-83
2022/07/14 00:07:20;;;;;;;;;;;15.20;99.90;;;;;;5119745;27;19927;-83
2022/07/14 00:09:46;;;;;;;;;;;15.20;99.90;;;;;;5134612;27;19923;-83
2022/07/14 00:12:11;;;;;;;;;;;15.20;99.90;;;;;;5136296;27;19923;-84
2022/07/14 00:14:37;;;;;;;;;;;15.20;99.90;;;;;;5119579;27;19927;-82
2022/07/14 00:17:03;;;;;;;;;;;15.20;99.90;;;;;;5134717;27;20367;-84
2022/07/14 00:19:28;;;;;;;;;;;15.20;99.90;;;;;;5118629;27;20370;-83
2022/07/14 00:21:54;;;;;;;;;;;15.20;99.90;;;;;;5133269;27;20290;-83
2022/07/14 00:24:20;;;;;;;;;;;15.10;99.90;;;;;;5098937;27;19972;-84
2022/07/14 00:26:45;;;;;;;;;;;15.10;99.90;;;;;;5129373;27;19930;-84
2022/07/14 00:29:11;;;;;;;;;;;15.10;99.90;;;;;;5135686;27;19931;-83
2022/07/14 00:31:36;;;;;;;;;;;15.10;99.90;;;;;;5132277;28;20367;-83
2022/07/14 00:34:02;;;;;;;;;;;15.00;99.90;;;;;;5116282;28;20270;-82
2022/07/14 00:36:28;;;;;;;;;;;15.00;99.90;;;;;;5134392;27;19923;-82
2022/07/14 00:38:54;;;;;;;;;;;15.00;99.90;;;;;;5099080;28;20026;-83
2022/07/14 00:41:19;;;;;;;;;;;15.00;99.90;;;;;;5118678;27;19923;-83
2022/07/14 00:43:45;;;;;;;;;;;14.90;99.90;;;;;;5136629;27;19943;-83
2022/07/14 00:46:11;;;;;;;;;;;14.80;99.90;;;;;;5140420;27;20022;-84
2022/07/14 00:48:36;;;;;;;;;;;14.80;99.90;;;;;;5140160;27;19927;-83
2022/07/14 00:51:02;;;;;;;;;;;14.70;99.90;;;;;;5119231;27;19924;-82
2022/07/14 00:53:27;;;;;;;;;;;14.70;99.90;;;;;;5119995;27;19931;-82
2022/07/14 00:55:53;;;;;;;;;;;14.60;99.90;;;;;;5103076;27;19927;-82
2022/07/14 00:58:19;;;;;;;;;;;14.60;99.90;;;;;;5086123;27;19927;-83
2022/07/14 01:00:44;;;;;;;;;;;14.50;99.90;;;;;;5118855;27;19923;-83
2022/07/14 01:03:10;;;;;;;;;;;14.40;99.90;;;;;;5104598;27;19927;-82
2022/07/14 01:05:36;;;;;;;;;;;14.40;99.90;;;;;;5119653;27;20016;-83
2022/07/14 01:08:02;;;;;;;;;;;14.30;99.90;;;;;;5102690;27;20402;-82
2022/07/14 01:10:28;;;;;;;;;;;14.30;99.90;;;;;;5126492;27;19923;-82
2022/07/14 01:12:55;;;;;;;;;;;14.20;99.90;;;;;;5128031;27;19934;-82
2022/07/14 01:15:21;;;;;;;;;;;14.20;99.90;;;;;;5119734;27;19924;-84
2022/07/14 01:17:47;;;;;;;;;;;14.20;99.90;;;;;;5102723;27;19925;-83
2022/07/14 01:20:13;;;;;;;;;;;14.10;99.90;;;;;;5121531;27;19931;-83
2022/07/14 01:22:39;;;;;;;;;;;14.10;99.90;;;;;;5117580;27;19928;-83
2022/07/14 01:25:06;;;;;;;;;;;14.00;99.90;;;;;;5119546;27;19968;-82
2022/07/14 01:27:32;;;;;;;;;;;14.00;99.90;;;;;;5119116;27;19931;-83
2022/07/14 01:29:58;;;;;;;;;;;14.00;99.90;;;;;;5119521;27;20378;-83
2022/07/14 01:32:24;;;;;;;;;;;13.90;99.90;;;;;;5131376;27;19923;-83
2022/07/14 01:34:49;;;;;;;;;;;14.00;99.90;;;;;;5120485;27;19967;-83
2022/07/14 01:37:15;;;;;;;;;;;13.90;99.90;;;;;;5102285;27;19935;-83
2022/07/14 01:39:41;;;;;;;;;;;14.00;99.90;;;;;;5101809;27;19988;-83
2022/07/14 01:42:07;;;;;;;;;;;14.00;99.90;;;;;;5111690;27;20308;-83
2022/07/14 01:44:32;;;;;;;;;;;14.00;99.90;;;;;;5109698;27;19935;-83
2022/07/14 01:46:58;;;;;;;;;;;13.90;99.90;;;;;;5101999;27;19930;-83
2022/07/14 01:49:23;;;;;;;;;;;13.90;99.90;;;;;;5118990;27;19934;-83
2022/07/14 01:51:49;;;;;;;;;;;13.90;99.90;;;;;;5121567;27;19936;-83
2022/07/14 01:54:14;;;;;;;;;;;13.90;99.90;;;;;;5101866;27;19966;-82
2022/07/14 01:56:40;;;;;;;;;;;13.80;99.90;;;;;;5101579;27;19977;-82
2022/07/14 01:59:06;;;;;;;;;;;13.80;99.90;;;;;;5118848;27;19924;-83
2022/07/14 02:01:40;;;;;;;;;;;13.70;99.90;;;;;;5101473;27;19923;-82
2022/07/14 02:04:10;;;;;;;;;;;13.70;99.90;;;;;;5133463;27;19960;-82
2022/07/14 02:06:37;;;;;;;;;;;13.70;99.90;;;;;;5121062;27;19931;-82
2022/07/14 02:09:02;;;;;;;;;;;13.70;99.90;;;;;;5118836;27;19930;-82
2022/07/14 02:14:12;;;;;;;;;;;13.60;99.90;;;;;;5120163;27;19975;-82
2022/07/14 02:16:38;;;;;;;;;;;13.50;99.90;;;;;;5119983;27;19928;-82
2022/07/14 02:19:03;;;;;;;;;;;13.60;99.90;;;;;;5101368;27;19927;-82
2022/07/14 02:21:29;;;;;;;;;;;13.60;99.90;;;;;;5101369;27;19923;-83
2022/07/14 02:23:55;;;;;;;;;;;13.50;99.90;;;;;;5124967;27;19932;-83
2022/07/14 02:26:20;;;;;;;;;;;13.50;99.90;;;;;;5110768;27;19966;-82
2022/07/14 02:28:46;;;;;;;;;;;13.50;99.90;;;;;;5118306;27;20018;-82
2022/07/14 02:31:12;;;;;;;;;;;13.40;99.90;;;;;;5101411;27;19931;-82
2022/07/14 02:33:38;;;;;;;;;;;13.30;99.90;;;;;;5100701;27;19928;-82
2022/07/14 02:36:04;;;;;;;;;;;13.30;99.90;;;;;;5105745;27;19931;-82
2022/07/14 02:38:30;;;;;;;;;;;13.20;99.90;;;;;;5134589;27;19923;-82
2022/07/14 02:40:55;;;;;;;;;;;13.10;99.90;;;;;;5101030;27;19931;-82
2022/07/14 02:43:21;;;;;;;;;;;13.10;99.90;;;;;;5084300;27;20305;-82
2022/07/14 02:45:46;;;;;;;;;;;13.10;99.90;;;;;;5136793;27;20015;-82
2022/07/14 02:48:12;;;;;;;;;;;13.10;99.90;;;;;;5117971;27;20295;-82
2022/07/14 02:50:40;;;;;;;;;;;13.00;99.90;;;;;;5100807;27;19930;-82
2022/07/14 02:53:05;;;;;;;;;;;12.90;99.90;;;;;;5084328;27;19967;-82
2022/07/14 02:55:34;;;;;;;;;;;12.90;99.90;;;;;;5110984;27;19965;-82
2022/07/14 02:57:59;;;;;;;;;;;12.80;99.90;;;;;;5128781;27;20394;-82
2022/07/14 03:00:25;;;;;;;;;;;12.80;99.90;;;;;;5117256;27;19924;-88
2022/07/14 03:02:50;;;;;;;;;;;12.80;99.90;;;;;;5117835;27;20355;-82
2022/07/14 03:05:16;;;;;;;;;;;12.80;99.90;;;;;;5123011;27;20271;-82
2022/07/14 03:07:41;;;;;;;;;;;12.80;99.90;;;;;;5117082;27;19935;-83
2022/07/14 03:10:08;;;;;;;;;;;12.70;99.90;;;;;;5117729;27;19935;-82
2022/07/14 03:12:33;;;;;;;;;;;12.60;99.90;;;;;;5100392;27;20500;-82
2022/07/14 03:15:00;;;;;;;;;;;12.70;99.90;;;;;;5121006;27;19919;-82
2022/07/14 03:17:26;;;;;;;;;;;12.60;99.90;;;;;;5134250;27;19924;-92
2022/07/14 03:19:51;;;;;;;;;;;12.60;99.90;;;;;;5099788;27;19931;-83
2022/07/14 03:22:17;;;;;;;;;;;12.60;99.90;;;;;;5100462;27;19928;-82
2022/07/14 03:24:43;;;;;;;;;;;12.50;99.90;;;;;;5117150;27;19989;-83
2022/07/14 03:27:08;;;;;;;;;;;12.50;99.90;;;;;;5118627;27;19929;-82
2022/07/14 03:29:34;;;;;;;;;;;12.50;99.90;;;;;;5118386;27;19923;-82
2022/07/14 03:31:59;;;;;;;;;;;12.50;99.90;;;;;;5103634;27;19923;-82
2022/07/14 03:34:25;;;;;;;;;;;12.40;99.90;;;;;;5137814;27;19924;-82
2022/07/14 03:36:50;;;;;;;;;;;12.40;99.90;;;;;;5137254;27;20279;-82
2022/07/14 03:39:16;;;;;;;;;;;12.30;99.90;;;;;;5133012;27;19969;-82
2022/07/14 03:41:41;;;;;;;;;;;12.30;99.90;;;;;;5116784;27;19928;-85
2022/07/14 03:44:07;;;;;;;;;;;12.30;99.90;;;;;;5099919;27;20328;-82
2022/07/14 03:46:33;;;;;;;;;;;12.20;99.90;;;;;;5107679;27;20327;-82
2022/07/14 03:49:00;;;;;;;;;;;12.30;99.90;;;;;;5119967;27;20343;-83
2022/07/14 03:51:25;;;;;;;;;;;12.30;99.90;;;;;;5129376;27;19927;-83
2022/07/14 03:53:51;;;;;;;;;;;12.20;99.90;;;;;;5102618;27;20461;-82
2022/07/14 03:56:16;;;;;;;;;;;12.20;99.90;;;;;;5102222;27;20439;-82
2022/07/14 03:58:43;;;;;;;;;;;12.30;99.90;;;;;;5119022;27;19923;-83
2022/07/14 04:01:08;;;;;;;;;;;12.20;99.90;;;;;;5120290;27;19923;-82
2022/07/14 04:03:34;;;;;;;;;;;12.20;99.90;;;;;;5137139;27;19945;-83
2022/07/14 04:06:00;;;;;;;;;;;12.30;99.90;;;;;;5119716;27;20457;-82
2022/07/14 04:08:25;;;;;;;;;;;12.20;99.90;;;;;;5132651;27;19923;-82
2022/07/14 04:10:51;;;;;;;;;;;12.30;99.90;;;;;;5082505;27;19972;-82
2022/07/14 04:13:16;;;;;;;;;;;12.30;99.90;;;;;;5099242;27;19924;-82
2022/07/14 04:15:42;;;;;;;;;;;12.30;99.90;;;;;;5099198;28;19928;-83
2022/07/14 04:18:08;;;;;;;;;;;12.20;99.90;;;;;;5125150;27;19931;-82
2022/07/14 04:20:34;;;;;;;;;;;12.30;99.90;;;;;;5097848;28;19926;-83
2022/07/14 04:22:59;;;;;;;;;;;12.40;99.90;;;;;;5116195;27;19958;-82
2022/07/14 04:25:25;;;;;;;;;;;12.40;99.90;;;;;;5116307;27;19939;-84
2022/07/14 04:27:51;;;;;;;;;;;12.50;99.90;;;;;;5110666;27;20041;-82
2022/07/14 04:30:17;;;;;;;;;;;12.60;99.90;;;;;;5119811;27;20343;-82
2022/07/14 04:32:43;;;;;;;;;;;12.60;99.90;;;;;;5136105;27;20405;-82
2022/07/14 04:35:08;;;;;;;;;;;12.60;99.90;;;;;;5131434;28;19939;-83
2022/07/14 04:37:34;;;;;;;;;;;12.60;99.90;;;;;;5117757;27;19923;-83
2022/07/14 04:40:00;;;;;;;;;;;12.70;99.90;;;;;;5136610;27;19923;-82
2022/07/14 04:42:25;;;;;;;;;;;12.70;99.90;;;;;;5136727;27;19985;-82
2022/07/14 04:44:51;;;;;;;;;;;12.80;99.90;;;;;;5107273;28;19923;-82
2022/07/14 04:47:17;;;;;;;;;;;12.80;99.90;;;;;;5098761;28;19929;-82
2022/07/14 04:52:27;;;;;;;;;;;13.00;99.90;;;;;;5116259;28;20294;-82
2022/07/14 04:54:52;;;;;;;;;;;13.10;99.90;;;;;;5120633;28;19923;-82
2022/07/14 04:57:19;;;;;;;;;;;13.20;99.90;;;;;;5099311;28;19923;-81
2022/07/14 04:59:45;;;;;;;;;;;13.30;99.90;;;;;;5126755;28;19928;-82
2022/07/14 05:02:10;;;;;;;;;;;13.40;99.90;;;;;;5115950;28;19930;-82
2022/07/14 05:04:36;;;;;;;;;;;13.50;99.90;;;;;;5129922;27;19962;-83
2022/07/14 05:07:02;;;;;;;;;;;13.60;99.90;;;;;;5102503;27;20405;-82
2022/07/14 05:09:32;;;;;;;;;;;13.70;99.90;;;;;;5098793;28;19923;-82
2022/07/14 05:11:58;;;;;;;;;;;13.80;99.90;;;;;;5105987;27;19923;-82
2022/07/14 05:14:24;;;;;;;;;;;13.90;99.90;;;;;;5132562;28;19927;-82
2022/07/14 05:16:49;;;;;;;;;;;14.00;99.90;;;;;;5100617;28;19930;-82
2022/07/14 05:19:16;;;;;;;;;;;14.10;99.90;;;;;;5098779;28;19928;-82
2022/07/14 05:21:41;;;;;;;;;;;14.10;99.90;;;;;;5115508;28;20401;-82
2022/07/14 05:24:07;;;;;;;;;;;14.20;99.90;;;;;;5106830;27;19923;-82
2022/07/14 05:26:33;;;;;;;;;;;14.20;99.90;;;;;;5128781;28;20268;-82
2022/07/14 05:28:58;;;;;;;;;;;14.30;99.90;;;;;;5098201;28;20375;-83
2022/07/14 05:31:24;;;;;;;;;;;14.30;99.90;;;;;;5108971;27;19923;-82
2022/07/14 05:33:50;;;;;;;;;;;14.40;99.90;;;;;;5102297;27;20377;-82
2022/07/14 05:36:16;;;;;;;;;;;14.50;99.90;;;;;;5119172;27;20014;-83
2022/07/14 05:38:41;;;;;;;;;;;14.50;99.90;;;;;;5102098;27;20022;-82
2022/07/14 05:41:07;;;;;;;;;;;14.70;99.90;;;;;;5125232;27;19923;-82
2022/07/14 05:43:32;;;;;;;;;;;14.80;99.90;;;;;;5122342;27;20298;-83
2022/07/14 05:46:05;;;;;;;;;;;14.90;99.90;;;;;;5139483;27;19972;-82
2022/07/14 05:48:31;;;;;;;;;;;15.00;99.90;;;;;;5117055;27;20290;-81
2022/07/14 05:51:07;;;;;;;;;;;15.10;99.90;;;;;;5126140;27;19929;-82
2022/07/14 05:53:33;;;;;;;;;;;15.30;99.90;;;;;;5119160;27;19927;-82
2022/07/14 05:55:58;;;;;;;;;;;15.30;99.90;;;;;;5118892;27;20405;-82
2022/07/14 05:58:24;;;;;;;;;;;15.40;99.90;;;;;;5119527;27;19926;-82
2022/07/14 06:00:50;;;;;;;;;;;15.50;99.90;;;;;;5101864;27;19927;-82
2022/07/14 06:03:15;;;;;;;;;;;15.60;99.90;;;;;;5114968;27;19931;-81
2022/07/14 06:05:41;;;;;;;;;;;15.60;99.90;;;;;;5135027;27;19930;-86
2022/07/14 06:08:07;;;;;;;;;;;15.70;99.90;;;;;;5114662;27;19931;-81
2022/07/14 06:10:33;;;;;;;;;;;15.70;99.90;;;;;;5095847;27;20291;-84
2022/07/14 06:12:58;;;;;;;;;;;15.80;99.90;;;;;;5119910;27;19923;-84
2022/07/14 06:15:24;;;;;;;;;;;15.90;99.90;;;;;;5128065;27;19924;-85
2022/07/14 06:17:50;;;;;;;;;;;16.00;99.90;;;;;;5107137;27;19923;-82
2022/07/14 06:20:15;;;;;;;;;;;16.10;99.90;;;;;;5135242;27;20443;-87
2022/07/14 06:22:41;;;;;;;;;;;16.20;99.90;;;;;;5111597;27;20275;-85
2022/07/14 06:25:07;;;;;;;;;;;16.40;99.90;;;;;;5121565;27;20386;-85
2022/07/14 06:27:32;;;;;;;;;;;16.40;99.90;;;;;;5121278;27;20006;-82
2022/07/14 06:30:01;;;;;;;;;;;16.60;99.90;;;;;;5118345;27;19924;-83
2022/07/14 06:32:27;;;;;;;;;;;16.70;99.90;;;;;;5118448;27;20006;-83
2022/07/14 06:34:52;;;;;;;;;;;16.80;99.90;;;;;;5084305;27;20398;-84
2022/07/14 06:37:18;;;;;;;;;;;16.90;99.90;;;;;;5119308;27;19962;-84
2022/07/14 06:39:43;;;;;;;;;;;17.10;99.90;;;;;;5120457;27;19938;-88
2022/07/14 06:42:09;;;;;;;;;;;17.20;99.90;;;;;;5120663;27;19927;-84
2022/07/14 06:44:35;;;;;;;;;;;17.20;99.90;;;;;;5120820;27;19975;-84
2022/07/14 06:47:01;;;;;;;;;;;17.30;99.90;;;;;;5111878;28;19924;-84
2022/07/14 06:49:27;;;;;;;;;;;17.50;99.90;;;;;;5097436;28;20003;-85
2022/07/14 06:51:52;;;;;;;;;;;17.50;99.90;;;;;;5097094;28;19971;-83
2022/07/14 06:54:18;;;;;;;;;;;17.60;99.90;;;;;;5097268;28;19924;-85
2022/07/14 06:56:44;;;;;;;;;;;17.60;99.90;;;;;;5097330;28;19935;-83
2022/07/14 06:59:09;;;;;;;;;;;17.70;99.90;;;;;;5079984;28;19931;-83
2022/07/14 07:01:37;;;;;;;;;;;17.80;99.90;;;;;;5079861;28;20049;-88
2022/07/14 07:04:03;;;;;;;;;;;17.80;99.90;;;;;;5080238;28;19924;-85
2022/07/14 07:06:44;;;;;;;;;;;17.80;99.90;;;;;;5095974;28;19965;-83
2022/07/14 07:09:10;;;;;;;;;;;17.80;99.90;;;;;;5113855;28;19931;-82
2022/07/14 07:11:36;;;;;;;;;;;17.90;99.90;;;;;;5096342;28;19950;-85
2022/07/14 07:14:02;;;;;;;;;;;18.00;99.90;;;;;;5096640;28;19927;-84
2022/07/14 07:16:28;;;;;;;;;;;18.10;99.90;;;;;;5114161;28;19924;-83
2022/07/14 07:18:53;;;;;;;;;;;18.10;99.90;;;;;;5079932;28;19928;-84
2022/07/14 07:21:20;;;;;;;;;;;18.10;99.90;;;;;;5097011;28;20014;-83
2022/07/14 07:23:47;;;;;;;;;;;18.20;99.90;;;;;;5076223;28;19927;-84
2022/07/14 07:26:13;;;;;;;;;;;18.10;99.90;;;;;;5093512;28;20018;-83
2022/07/14 07:28:38;;;;;;;;;;;18.20;99.90;;;;;;5113119;28;19970;-83
2022/07/14 07:31:04;;;;;;;;;;;18.30;99.90;;;;;;5113471;28;19928;-84
2022/07/14 07:33:30;;;;;;;;;;;18.30;99.90;;;;;;5113479;28;19931;-84
2022/07/14 07:35:55;;;;;;;;;;;18.30;99.90;;;;;;5095916;28;19924;-84
2022/07/14 07:38:21;;;;;;;;;;;18.30;99.90;;;;;;5093016;28;20057;-83
2022/07/14 07:40:49;;;;;;;;;;;18.30;99.90;;;;;;5075891;28;19924;-84
2022/07/14 07:43:15;;;;;;;;;;;18.30;99.90;;;;;;5082005;28;19928;-84
2022/07/14 07:45:41;;;;;;;;;;;18.40;99.90;;;;;;5090391;28;19932;-85
2022/07/14 07:48:06;;;;;;;;;;;18.30;99.90;;;;;;5065360;28;19924;-84
2022/07/14 07:50:33;;;;;;;;;;;18.40;99.90;;;;;;5076267;28;19924;-84
2022/07/14 07:52:58;;;;;;;;;;;18.40;99.90;;;;;;5059172;28;19924;-84
2022/07/14 07:55:24;;;;;;;;;;;18.50;99.90;;;;;;5108703;28;19927;-84
2022/07/14 07:57:50;;;;;;;;;;;18.50;99.90;;;;;;5078174;28;20007;-84
2022/07/14 08:00:15;;;;;;;;;;;18.40;99.90;;;;;;5081550;28;19930;-86
2022/07/14 08:02:52;;;;;;;;;;;18.40;99.90;;;;;;5096122;28;20302;-86
2022/07/14 08:05:19;;;;;;;;;;;18.50;99.90;;;;;;5094894;28;19938;-85
2022/07/14 08:07:44;;;;;;;;;;;18.50;99.90;;;;;;5096185;28;19950;-85
2022/07/14 08:10:10;;;;;;;;;;;18.60;99.90;;;;;;5096063;28;19923;-85
2022/07/14 08:12:36;;;;;;;;;;;18.60;99.90;;;;;;5081251;28;20023;-82
2022/07/14 08:15:01;;;;;;;;;;;18.60;99.90;;;;;;5110210;28;19987;-83
2022/07/14 08:17:27;;;;;;;;;;;18.60;99.90;;;;;;5078452;28;19928;-84
2022/07/14 08:19:52;;;;;;;;;;;18.70;99.90;;;;;;5094875;28;19931;-87
2022/07/14 08:22:22;;;;;;;;;;;18.70;99.90;;;;;;5096099;28;19924;-83
2022/07/14 08:24:48;;;;;;;;;;;18.70;99.90;;;;;;5094581;28;20398;-83
2022/07/14 08:27:14;;;;;;;;;;;18.70;99.90;;;;;;5112700;28;19927;-83
2022/07/14 08:29:39;;;;;;;;;;;18.80;99.90;;;;;;5095825;28;19923;-84
2022/07/14 08:32:05;;;;;;;;;;;18.90;99.90;;;;;;5095663;28;19931;-84
2022/07/14 08:34:30;;;;;;;;;;;19.00;99.90;;;;;;5098969;28;19997;-83
2022/07/14 08:36:58;;;;;;;;;;;18.90;99.90;;;;;;5104154;28;20280;-84
2022/07/14 08:39:24;;;;;;;;;;;19.00;99.90;;;;;;5092404;28;19935;-84
2022/07/14 08:41:51;;;;;;;;;;;18.90;99.90;;;;;;5090103;28;19928;-84
2022/07/14 08:44:17;;;;;;;;;;;19.00;99.90;;;;;;5095688;28;20007;-82
2022/07/14 08:46:43;;;;;;;;;;;18.90;99.90;;;;;;5100002;28;19923;-84
2022/07/14 08:49:09;;;;;;;;;;;18.90;99.90;;;;;;5113500;28;19923;-85
2022/07/14 08:51:37;;;;;;;;;;;18.80;99.90;;;;;;5113741;27;19934;-86
2022/07/14 08:54:03;;;;;;;;;;;18.80;99.90;;;;;;5129813;28;19985;-84
2022/07/14 08:56:30;;;;;;;;;;;18.80;99.90;;;;;;5096491;28;19970;-86
2022/07/14 08:58:55;;;;;;;;;;;18.80;99.90;;;;;;5112923;28;20035;-82
2022/07/14 09:01:21;;;;;;;;;;;18.80;99.90;;;;;;5098817;27;19931;-85
2022/07/14 09:03:47;;;;;;;;;;;18.80;99.90;;;;;;5116505;27;19927;-84
2022/07/14 09:06:33;;;;;;;;;;;18.90;99.90;;;;;;5139131;27;19927;-85
2022/07/14 09:08:59;;;;;;;;;;;19.00;99.90;;;;;;5141295;27;19934;-83
2022/07/14 09:11:24;;;;;;;;;;;19.00;99.90;;;;;;5157049;27;19927;-86
2022/07/14 09:13:50;;;;;;;;;;;19.00;99.90;;;;;;5090491;27;19935;-86
2022/07/14 09:16:20;;;;;;;;;;;19.10;99.90;;;;;;5083209;27;20304;-85
2022/07/14 09:19:03;;;;;;;;;;;19.10;99.90;;;;;;5099851;27;19928;-84
2022/07/14 09:21:29;;;;;;;;;;;19.20;99.90;;;;;;5117003;27;20037;-82
2022/07/14 09:23:54;;;;;;;;;;;19.40;99.90;;;;;;5119648;27;20378;-82
2022/07/14 09:26:21;;;;;;;;;;;19.40;99.90;;;;;;5121778;27;19923;-82
2022/07/14 09:28:48;;;;;;;;;;;19.40;99.90;;;;;;5120701;27;19923;-82
2022/07/14 09:31:24;;;;;;;;;;;19.30;99.90;;;;;;5120228;27;20002;-81
2022/07/14 09:33:55;;;;;;;;;;;19.20;99.90;;;;;;5134432;27;20027;-81
2022/07/14 09:36:22;;;;;;;;;;;19.20;99.90;;;;;;5120326;27;19927;-82
2022/07/14 09:38:48;;;;;;;;;;;19.10;99.90;;;;;;5137586;27;19927;-82
2022/07/14 09:41:14;;;;;;;;;;;19.20;99.90;;;;;;5136786;27;20334;-81
2022/07/14 09:43:40;;;;;;;;;;;19.30;99.90;;;;;;5137247;27;20022;-84
2022/07/14 09:46:06;;;;;;;;;;;19.40;99.90;;;;;;5136518;27;19939;-87
2022/07/14 09:48:32;;;;;;;;;;;19.50;99.90;;;;;;5119657;27;19971;-87
2022/07/14 09:50:59;;;;;;;;;;;19.60;99.90;;;;;;5119940;27;19930;-82
2022/07/14 09:53:30;;;;;;;;;;;19.70;99.90;;;;;;5133098;27;19932;-83
2022/07/14 09:55:57;;;;;;;;;;;19.80;99.90;;;;;;5124936;27;19930;-85
2022/07/14 09:58:24;;;;;;;;;;;19.80;99.90;;;;;;5136348;27;19927;-83
2022/07/14 10:00:55;;;;;;;;;;;19.80;99.90;;;;;;5130921;27;19934;-83
2022/07/14 10:03:21;;;;;;;;;;;19.80;99.90;;;;;;5116175;27;19972;-85
2022/07/14 10:05:48;;;;;;;;;;;19.80;99.90;;;;;;5084663;27;20394;-84
2022/07/14 10:08:15;;;;;;;;;;;19.70;99.90;;;;;;5132112;27;19972;-81
2022/07/14 10:10:40;;;;;;;;;;;19.60;99.90;;;;;;5106983;27;20370;-84
2022/07/14 10:13:06;;;;;;;;;;;19.60;99.90;;;;;;5119175;27;20042;-86
2022/07/14 10:15:32;;;;;;;;;;;19.60;99.90;;;;;;5119442;27;19981;-87
2022/07/14 10:18:00;;;;;;;;;;;19.50;99.90;;;;;;5118639;27;19933;-88
2022/07/14 10:20:26;;;;;;;;;;;19.40;99.90;;;;;;5113082;27;20542;-88
2022/07/14 10:22:53;;;;;;;;;;;19.40;99.90;;;;;;5120007;27;19927;-87
2022/07/14 10:25:19;;;;;;;;;;;19.40;99.90;;;;;;5136553;27;19930;-88
2022/07/14 10:27:46;;;;;;;;;;;19.40;99.90;;;;;;5136693;27;19927;-88
2022/07/14 10:30:11;;;;;;;;;;;19.30;99.90;;;;;;5118653;27;19923;-87
2022/07/14 10:32:37;;;;;;;;;;;19.40;99.90;;;;;;5119548;27;19930;-87
2022/07/14 10:35:03;;;;;;;;;;;19.50;99.90;;;;;;5119059;27;19934;-86
2022/07/14 10:37:28;;;;;;;;;;;19.50;99.90;;;;;;5122698;27;19934;-89
2022/07/14 10:40:03;;;;;;;;;;;19.50;99.90;;;;;;5116233;27;19939;-88
2022/07/14 10:42:34;;;;;;;;;;;19.50;99.90;;;;;;5098035;27;20298;-86
2022/07/14 10:45:01;;;;;;;;;;;19.50;99.90;;;;;;5121243;27;19969;-87
2022/07/14 10:47:42;;;;;;;;;;;19.50;99.90;;;;;;5109017;27;19926;-87
2022/07/14 10:50:09;;;;;;;;;;;19.50;99.90;;;;;;5135496;27;19927;-88
2022/07/14 10:52:38;;;;;;;;;;;19.70;99.90;;;;;;5126881;27;19927;-88
2022/07/14 10:55:11;;;;;;;;;;;19.80;99.90;;;;;;5118388;27;19930;-88
2022/07/14 10:57:36;;;;;;;;;;;20.00;99.90;;;;;;5119277;27;20026;-89
2022/07/14 11:00:03;;;;;;;;;;;20.20;99.90;;;;;;5118282;27;20112;-87
2022/07/14 11:02:31;;;;;;;;;;;20.30;99.90;;;;;;5099327;27;20014;-88
2022/07/14 11:04:57;;;;;;;;;;;20.40;99.90;;;;;;5135482;27;20163;-86
2022/07/14 11:07:39;;;;;;;;;;;20.60;99.90;;;;;;5117639;27;20002;-87
2022/07/14 11:10:14;;;;;;;;;;;20.80;99.90;;;;;;5123402;27;20089;-88
2022/07/14 11:12:58;;;;;;;;;;;21.10;99.90;;;;;;5120930;27;19923;-89
2022/07/14 11:15:38;;;;;;;;;;;21.20;99.90;;;;;;5119033;27;19950;-90
2022/07/14 11:18:15;;;;;;;;;;;21.30;99.90;;;;;;5118859;27;19927;-90
2022/07/14 11:20:49;;;;;;;;;;;21.30;99.90;;;;;;5118819;27;20450;-89
2022/07/14 11:23:16;;;;;;;;;;;21.30;99.90;;;;;;5118779;27;19973;-88
2022/07/14 11:25:43;;;;;;;;;;;21.30;99.90;;;;;;5136146;27;19929;-87
2022/07/14 11:28:27;;;;;;;;;;;21.20;99.90;;;;;;5110223;27;19930;-89
2022/07/14 11:31:12;;;;;;;;;;;21.20;99.90;;;;;;5123636;27;19927;-86
2022/07/14 11:36:17;;;;;;;;;;;21.20;99.90;;;;;;5131441;27;19927;-88
2022/07/14 11:36:27;;;;;;;;;;;21.30;99.90;;;;;;5134530;27;19988;-89
2022/07/14 11:39:16;;;;;;;;;;;21.50;99.90;;;;;;5128058;27;19931;-88
2022/07/14 11:41:46;;;;;;;;;;;22.00;99.90;;;;;;5120249;27;19989;-88
2022/07/14 11:44:30;;;;;;;;;;;22.10;99.90;;;;;;5133389;27;19927;-86
2022/07/14 11:46:59;;;;;;;;;;;22.30;99.90;;;;;;5115085;27;19927;-86
2022/07/14 11:49:25;;;;;;;;;;;22.40;99.90;;;;;;5135529;27;19933;-86
2022/07/14 11:51:53;;;;;;;;;;;22.80;99.90;;;;;;5135407;27;19927;-86
2022/07/14 11:54:20;;;;;;;;;;;22.90;99.90;;;;;;5117172;27;19927;-86
2022/07/14 11:56:45;;;;;;;;;;;22.80;99.90;;;;;;5134866;27;20351;-88
2022/07/14 11:59:16;;;;;;;;;;;22.90;99.90;;;;;;5117644;27;20117;-88
2022/07/14 12:01:44;;;;;;;;;;;22.70;99.90;;;;;;5132400;27;19923;-88
2022/07/14 12:04:11;;;;;;;;;;;22.70;99.90;;;;;;5100627;27;19927;-88
2022/07/14 12:06:38;;;;;;;;;;;22.60;99.90;;;;;;5134066;27;20275;-86
2022/07/14 12:09:04;;;;;;;;;;;22.80;99.90;;;;;;5117324;27;19933;-86
2022/07/14 12:11:30;;;;;;;;;;;23.00;99.90;;;;;;5130919;27;19923;-85
2022/07/14 12:13:55;;;;;;;;;;;23.00;99.90;;;;;;5080161;27;19923;-87
2022/07/14 12:16:21;;;;;;;;;;;23.20;99.90;;;;;;5096431;27;19970;-87
2022/07/14 12:18:50;;;;;;;;;;;23.30;99.90;;;;;;5115808;27;19931;-86
2022/07/14 12:21:16;;;;;;;;;;;23.50;99.90;;;;;;5130384;27;20006;-86
2022/07/14 12:23:55;;;;;;;;;;;23.60;99.90;;;;;;5096930;27;20005;-86
2022/07/14 12:26:21;;;;;;;;;;;23.80;99.90;;;;;;5113813;27;19927;-84
2022/07/14 12:28:51;;;;;;;;;;;23.60;99.90;;;;;;5100262;27;19974;-85
2022/07/14 12:31:17;;;;;;;;;;;23.90;99.80;;;;;;5108316;27;19926;-85
2022/07/14 12:33:44;;;;;;;;;;;23.90;99.90;;;;;;5116967;27;20015;-83
2022/07/14 12:36:12;;;;;;;;;;;24.10;99.90;;;;;;5117178;27;19930;-85
2022/07/14 12:38:38;;;;;;;;;;;24.00;99.90;;;;;;5133962;27;19933;-86
2022/07/14 12:41:05;;;;;;;;;;;24.10;99.90;;;;;;5135809;27;19927;-88
2022/07/14 12:43:35;;;;;;;;;;;23.80;99.00;;;;;;5126136;27;19949;-92
2022/07/14 12:46:02;;;;;;;;;;;24.10;99.90;;;;;;5160623;27;19922;-94
2022/07/14 12:48:32;;;;;;;;;;;24.20;99.90;;;;;;5129288;27;19931;-88
2022/07/14 12:51:17;;;;;;;;;;;23.70;98.80;;;;;;5115216;27;19981;-88
2022/07/14 12:53:58;;;;;;;;;;;23.60;99.70;;;;;;5138370;27;19931;-88
2022/07/14 12:56:24;;;;;;;;;;;23.90;99.90;;;;;;5120814;27;19966;-84
2022/07/14 12:58:50;;;;;;;;;;;24.10;99.90;;;;;;5120466;27;19934;-83
2022/07/14 13:01:15;;;;;;;;;;;24.10;99.90;;;;;;5119541;27;19931;-88
2022/07/14 13:03:41;;;;;;;;;;;24.30;99.90;;;;;;5137375;27;20677;-90
2022/07/14 13:06:06;;;;;;;;;;;24.20;99.90;;;;;;5121150;27;19923;-93
2022/07/14 13:08:32;;;;;;;;;;;24.30;99.50;;;;;;5104065;27;20390;-91
2022/07/14 13:10:58;;;;;;;;;;;24.30;98.80;;;;;;5120182;27;19972;-91
2022/07/14 13:13:31;;;;;;;;;;;24.10;98.30;;;;;;5121101;27;19937;-87
2022/07/14 13:16:15;;;;;;;;;;;24.20;98.60;;;;;;5121289;27;19931;-90
2022/07/14 13:19:20;;;;;;;;;;;24.40;99.20;;;;;;5119897;27;19927;-85
2022/07/14 13:21:48;;;;;;;;;;;24.50;96.70;;;;;;5037595;28;19932;-82
2022/07/14 13:24:21;;;;;;;;;;;24.60;96.70;;;;;;5037244;28;19925;-82
2022/07/14 13:27:06;;;;;;;;;;;24.60;95.80;;;;;;5064063;27;19971;-83
2022/07/14 13:29:37;;;;;;;;;;;24.80;95.60;;;;;;5133155;27;19923;-82
2022/07/14 13:32:04;;;;;;;;;;;24.50;93.10;;;;;;5123138;27;19923;-82
2022/07/14 13:34:29;;;;;;;;;;;24.70;93.90;;;;;;5139756;27;20339;-81
2022/07/14 13:36:56;;;;;;;;;;;24.90;93.50;;;;;;5119425;27;19924;-82
2022/07/14 13:39:22;;;;;;;;;;;24.90;93.30;;;;;;5112054;27;19923;-83
2022/07/14 13:41:47;;;;;;;;;;;24.90;92.80;;;;;;5140040;27;19969;-82
2022/07/14 13:44:14;;;;;;;;;;;24.90;92.60;;;;;;5122987;27;19974;-82
2022/07/14 13:46:40;;;;;;;;;;;24.80;93.70;;;;;;5139339;27;19930;-84
2022/07/14 13:49:05;;;;;;;;;;;25.00;95.20;;;;;;5138511;27;19923;-81
2022/07/14 13:54:15;;;;;;;;;;;25.30;94.50;;;;;;5139948;27;19972;-81
2022/07/14 13:56:41;;;;;;;;;;;25.30;94.30;;;;;;5122124;27;19923;-85
2022/07/14 13:59:10;;;;;;;;;;;25.20;94.30;;;;;;5137412;27;19965;-81
2022/07/14 14:01:36;;;;;;;;;;;25.40;95.80;;;;;;5139430;27;19923;-83
2022/07/14 14:04:02;;;;;;;;;;;24.80;95.30;;;;;;5122162;27;20248;-82
2022/07/14 14:06:27;;;;;;;;;;;23.70;94.80;;;;;;5121677;27;20235;-83
2022/07/14 14:08:53;;;;;;;;;;;23.60;96.80;;;;;;5128833;27;19924;-83
2022/07/14 14:11:19;;;;;;;;;;;23.80;98.50;;;;;;5105199;27;19927;-83
2022/07/14 14:13:45;;;;;;;;;;;23.60;99.90;;;;;;5122096;27;19977;-80
2022/07/14 14:16:10;;;;;;;;;;;23.30;99.90;;;;;;5121982;27;19963;-82
2022/07/14 14:18:36;;;;;;;;;;;22.90;99.90;;;;;;5117780;27;20375;-80
2022/07/14 14:21:03;;;;;;;;;;;22.70;99.90;;;;;;5123830;27;20879;-82
2022/07/14 14:23:29;;;;;;;;;;;22.40;99.90;;;;;;5122064;27;19978;-82